createdAt,value
2018-03-22T00:00:28.814Z,2.90
2018-03-22T00:02:56.292Z,2.94
2018-03-22T00:05:23.766Z,2.92
2018-03-22T00:07:51.299Z,2.92
2018-03-22T00:10:18.831Z,2.97
2018-03-22T00:12:46.350Z,2.97
2018-03-22T00:15:13.851Z,2.93
2018-03-22T00:17:41.315Z,2.85
2018-03-22T00:20:08.812Z,2.86
2018-03-22T00:22:39.320Z,2.83
2018-03-22T00:25:06.818Z,2.84
2018-03-22T00:27:34.271Z,2.73
2018-03-22T00:30:01.786Z,2.67
2018-03-22T00:32:29.283Z,2.68
2018-03-22T00:34:56.752Z,2.67
2018-03-22T00:37:24.291Z,2.70
2018-03-22T00:39:51.765Z,2.68
2018-03-22T00:42:19.232Z,2.60
2018-03-22T00:44:46.700Z,2.56
2018-03-22T00:47:14.180Z,2.48
2018-03-22T00:49:41.651Z,2.48
2018-03-22T00:52:09.116Z,2.45
2018-03-22T00:54:36.605Z,2.34
2018-03-22T00:57:04.151Z,2.31
2018-03-22T00:59:31.723Z,2.32
2018-03-22T01:01:59.273Z,2.29
2018-03-22T01:04:26.832Z,2.27
2018-03-22T01:06:54.295Z,2.22
2018-03-22T01:09:21.789Z,2.21
2018-03-22T01:11:49.311Z,2.15
2018-03-22T01:14:16.861Z,2.09
2018-03-22T01:16:44.341Z,2.11
2018-03-22T01:19:11.794Z,2.08
2018-03-22T01:21:39.279Z,2.00
2018-03-22T01:24:06.746Z,1.93
2018-03-22T01:26:34.201Z,1.87
2018-03-22T01:29:01.704Z,1.81
2018-03-22T01:31:29.468Z,1.77
2018-03-22T01:33:57.018Z,1.73
2018-03-22T01:36:24.494Z,1.67
2018-03-22T01:38:51.970Z,1.66
2018-03-22T01:41:19.425Z,1.70
2018-03-22T01:43:46.910Z,1.72
2018-03-22T01:46:14.400Z,1.74
2018-03-22T01:48:41.864Z,1.69
2018-03-22T01:51:09.337Z,1.63
2018-03-22T01:53:36.829Z,1.62
2018-03-22T01:56:04.290Z,1.59
2018-03-22T01:58:31.799Z,1.60
2018-03-22T02:00:59.263Z,1.62
2018-03-22T02:03:26.737Z,1.66
2018-03-22T02:05:54.222Z,1.67
2018-03-22T02:08:21.685Z,1.69
2018-03-22T02:10:49.160Z,1.71
2018-03-22T02:13:16.634Z,1.72
2018-03-22T02:15:44.119Z,1.70
2018-03-22T02:18:11.661Z,1.72
2018-03-22T02:20:39.117Z,1.75
2018-03-22T02:23:06.585Z,1.75
2018-03-22T02:25:34.049Z,1.75
2018-03-22T02:28:01.542Z,1.75
2018-03-22T02:30:28.999Z,1.76
2018-03-22T02:32:56.595Z,1.72
2018-03-22T02:35:24.073Z,1.67
2018-03-22T02:37:51.639Z,1.65
2018-03-22T02:40:19.105Z,1.66
2018-03-22T02:42:46.695Z,1.64
2018-03-22T02:45:14.155Z,1.65
2018-03-22T02:47:41.614Z,1.65
2018-03-22T02:50:09.119Z,1.69
2018-03-22T02:52:37.294Z,1.73
2018-03-22T02:55:04.854Z,1.71
2018-03-22T02:57:32.430Z,1.72
2018-03-22T02:59:59.893Z,1.73
2018-03-22T03:02:27.431Z,1.73
2018-03-22T03:04:54.932Z,1.76
2018-03-22T03:07:22.394Z,1.77
2018-03-22T03:09:49.854Z,1.80
2018-03-22T03:12:17.362Z,1.79
2018-03-22T03:14:44.838Z,1.79
2018-03-22T03:17:12.327Z,1.80
2018-03-22T03:19:39.814Z,1.79
2018-03-22T03:22:07.267Z,1.81
2018-03-22T03:24:34.837Z,1.82
2018-03-22T03:27:02.308Z,1.83
2018-03-22T03:29:29.868Z,1.87
2018-03-22T03:31:57.341Z,1.90
2018-03-22T03:34:24.888Z,1.86
2018-03-22T03:36:52.362Z,1.87
2018-03-22T03:39:19.905Z,1.88
2018-03-22T03:41:47.402Z,1.90
2018-03-22T03:44:14.913Z,1.88
2018-03-22T03:46:42.486Z,1.89
2018-03-22T03:49:10.046Z,1.93
2018-03-22T03:51:37.522Z,1.96
2018-03-22T03:54:04.984Z,1.97
2018-03-22T03:56:32.502Z,1.95
2018-03-22T03:58:59.973Z,1.97
2018-03-22T04:01:27.431Z,1.96
2018-03-22T04:03:54.918Z,1.99
2018-03-22T04:06:22.390Z,1.98
2018-03-22T04:08:49.936Z,1.99
2018-03-22T04:11:17.417Z,1.94
2018-03-22T04:13:44.871Z,1.95
2018-03-22T04:16:12.346Z,1.95
2018-03-22T04:18:39.871Z,1.95
2018-03-22T04:21:07.343Z,1.95
2018-03-22T04:23:34.802Z,1.94
2018-03-22T04:26:02.265Z,1.93
2018-03-22T04:28:29.784Z,1.91
2018-03-22T04:30:57.258Z,1.90
2018-03-22T04:33:24.735Z,1.92
2018-03-22T04:35:52.211Z,1.92
2018-03-22T04:38:19.661Z,1.90
2018-03-22T04:40:47.139Z,1.86
2018-03-22T04:43:14.700Z,1.86
2018-03-22T04:45:42.159Z,1.85
2018-03-22T04:48:09.709Z,1.82
2018-03-22T04:50:37.178Z,1.77
2018-03-22T04:53:04.753Z,1.69
2018-03-22T04:55:32.291Z,1.68
2018-03-22T04:57:59.820Z,1.69
2018-03-22T05:00:27.306Z,1.66
2018-03-22T05:02:54.766Z,1.62
2018-03-22T05:05:22.250Z,1.65
2018-03-22T05:07:49.766Z,1.71
2018-03-22T05:10:17.234Z,1.73
2018-03-22T05:12:44.735Z,1.76
2018-03-22T05:15:12.300Z,1.79
2018-03-22T05:17:39.797Z,1.80
2018-03-22T05:20:07.307Z,1.83
2018-03-22T05:22:34.864Z,1.83
2018-03-22T05:25:02.444Z,1.84
2018-03-22T05:27:29.964Z,1.85
2018-03-22T05:29:57.418Z,1.87
2018-03-22T05:32:24.897Z,1.87
2018-03-22T05:34:52.385Z,1.88
2018-03-22T05:37:19.848Z,1.86
2018-03-22T05:39:47.323Z,1.88
2018-03-22T05:42:14.911Z,1.93
2018-03-22T05:44:42.469Z,1.95
2018-03-22T05:47:09.960Z,1.94
2018-03-22T05:49:37.431Z,1.93
2018-03-22T05:52:04.891Z,1.95
2018-03-22T05:54:32.484Z,2.03
2018-03-22T05:56:59.948Z,2.04
2018-03-22T05:59:27.501Z,2.07
2018-03-22T06:01:54.962Z,2.11
2018-03-22T06:04:22.427Z,2.10
2018-03-22T06:06:49.919Z,2.10
2018-03-22T06:09:17.387Z,2.09
2018-03-22T06:11:44.942Z,2.11
2018-03-22T06:14:12.434Z,2.07
2018-03-22T06:16:39.963Z,2.06
2018-03-22T06:19:07.414Z,2.05
2018-03-22T06:21:34.894Z,2.09
2018-03-22T06:24:02.356Z,2.16
2018-03-22T06:26:29.838Z,2.21
2018-03-22T06:28:57.333Z,2.23
2018-03-22T06:31:24.803Z,2.32
2018-03-22T06:33:52.314Z,2.37
2018-03-22T06:36:19.791Z,2.47
2018-03-22T06:38:47.246Z,2.56
2018-03-22T06:41:14.725Z,2.53
2018-03-22T06:43:42.182Z,2.54
2018-03-22T06:46:09.652Z,2.58
2018-03-22T06:48:37.136Z,2.60
2018-03-22T06:51:04.626Z,2.65
2018-03-22T06:53:32.198Z,2.62
2018-03-22T06:55:59.745Z,2.41
2018-03-22T06:58:27.240Z,2.34
2018-03-22T07:00:54.755Z,2.31
2018-03-22T07:03:22.239Z,2.23
2018-03-22T07:05:49.698Z,2.08
2018-03-22T07:08:17.175Z,2.03
2018-03-22T07:10:44.690Z,1.88
2018-03-22T07:13:12.254Z,1.86
2018-03-22T07:15:39.717Z,1.77
2018-03-22T07:18:07.239Z,1.64
2018-03-22T07:20:34.725Z,1.56
2018-03-22T07:23:02.188Z,1.56
2018-03-22T07:25:29.757Z,1.48
2018-03-22T07:27:57.251Z,1.36
2018-03-22T07:30:24.759Z,1.29
2018-03-22T07:32:52.237Z,1.24
2018-03-22T07:35:19.774Z,1.24
2018-03-22T07:37:47.257Z,1.23
2018-03-22T07:40:14.715Z,1.25
2018-03-22T07:42:42.203Z,1.20
2018-03-22T07:45:09.686Z,1.27
2018-03-22T07:47:37.153Z,1.30
2018-03-22T07:50:04.626Z,1.32
2018-03-22T07:52:32.092Z,1.30
2018-03-22T07:54:59.572Z,1.31
2018-03-22T07:57:27.051Z,1.40
2018-03-22T07:59:54.540Z,1.50
2018-03-22T08:02:21.990Z,1.53
2018-03-22T08:04:49.485Z,1.52
2018-03-22T08:07:16.978Z,1.59
2018-03-22T08:09:44.453Z,1.58
2018-03-22T08:12:11.928Z,1.60
2018-03-22T08:14:39.414Z,1.67
2018-03-22T08:17:06.871Z,1.64
2018-03-22T08:19:34.434Z,1.64
2018-03-22T08:22:01.991Z,1.51
2018-03-22T08:24:29.448Z,1.51
2018-03-22T08:26:56.906Z,1.44
2018-03-22T08:29:24.464Z,1.48
2018-03-22T08:31:51.917Z,1.57
2018-03-22T08:34:19.382Z,1.69
2018-03-22T08:36:46.885Z,1.84
2018-03-22T08:39:14.340Z,1.95
2018-03-22T08:41:41.807Z,1.94
2018-03-22T08:44:09.290Z,1.97
2018-03-22T08:46:36.806Z,1.95
2018-03-22T08:49:04.307Z,2.07
2018-03-22T08:51:31.875Z,2.06
2018-03-22T08:53:59.342Z,1.97
2018-03-22T08:56:26.894Z,2.00
2018-03-22T08:58:54.357Z,1.92
2018-03-22T09:01:21.820Z,1.86
2018-03-22T09:03:49.318Z,1.86
2018-03-22T09:06:16.778Z,1.86
2018-03-22T09:08:44.235Z,1.87
2018-03-22T09:11:11.737Z,1.97
2018-03-22T09:13:39.202Z,2.14
2018-03-22T09:16:06.669Z,2.08
2018-03-22T09:18:34.160Z,2.02
2018-03-22T09:21:01.630Z,2.07
2018-03-22T09:23:29.105Z,2.11
2018-03-22T09:25:56.593Z,2.19
2018-03-22T09:28:24.192Z,2.21
2018-03-22T09:30:51.717Z,2.43
2018-03-22T09:33:19.190Z,2.55
2018-03-22T09:35:46.646Z,2.43
2018-03-22T09:38:14.150Z,2.26
2018-03-22T09:40:41.642Z,2.11
2018-03-22T09:43:09.108Z,1.92
2018-03-22T09:45:36.610Z,1.79
2018-03-22T09:48:04.178Z,1.68
2018-03-22T09:50:31.686Z,1.73
2018-03-22T09:52:59.191Z,1.76
2018-03-22T09:55:26.657Z,1.74
2018-03-22T09:57:54.134Z,1.72
2018-03-22T10:00:21.626Z,1.70
2018-03-22T10:02:49.130Z,1.76
2018-03-22T10:05:16.567Z,1.71
2018-03-22T10:07:44.042Z,1.65
2018-03-22T10:10:11.506Z,1.62
2018-03-22T10:12:38.979Z,1.57
2018-03-22T10:15:06.471Z,1.59
2018-03-22T10:17:33.943Z,1.64
2018-03-22T10:20:01.414Z,1.72
2018-03-22T10:22:28.902Z,1.77
2018-03-22T10:24:56.361Z,1.83
2018-03-22T10:27:23.879Z,1.79
2018-03-22T10:29:51.358Z,1.90
2018-03-22T10:32:18.818Z,2.03
2018-03-22T10:34:46.284Z,2.08
2018-03-22T10:37:13.912Z,2.07
2018-03-22T10:39:41.375Z,2.02
2018-03-22T10:42:08.880Z,1.86
2018-03-22T10:44:36.450Z,1.81
2018-03-22T10:47:03.922Z,1.90
2018-03-22T10:49:31.382Z,1.91
2018-03-22T10:51:58.856Z,1.89
2018-03-22T10:54:26.331Z,2.02
2018-03-22T10:56:53.805Z,2.11
2018-03-22T10:59:21.284Z,2.04
2018-03-22T11:01:54.404Z,1.96
2018-03-22T11:04:21.941Z,1.98
2018-03-22T11:06:49.424Z,1.93
2018-03-22T11:09:16.895Z,2.03
2018-03-22T11:11:44.407Z,2.03
2018-03-22T11:14:12.016Z,2.01
2018-03-22T11:16:39.473Z,2.03
2018-03-22T11:19:06.958Z,2.03
2018-03-22T11:21:34.425Z,2.00
2018-03-22T11:24:01.882Z,2.01
2018-03-22T11:26:29.355Z,2.08
2018-03-22T11:28:56.819Z,2.13
2018-03-22T11:31:24.290Z,2.13
2018-03-22T11:33:51.782Z,2.07
2018-03-22T11:36:19.305Z,2.01
2018-03-22T11:38:46.763Z,2.03
2018-03-22T11:41:14.278Z,2.03
2018-03-22T11:43:41.767Z,2.01
2018-03-22T11:46:09.361Z,2.05
2018-03-22T11:48:36.985Z,2.00
2018-03-22T11:51:04.545Z,2.04
2018-03-22T11:53:32.026Z,2.06
2018-03-22T11:55:59.526Z,2.13
2018-03-22T11:58:26.984Z,2.15
2018-03-22T12:00:54.447Z,2.15
2018-03-22T12:03:21.938Z,2.09
2018-03-22T12:05:49.405Z,2.14
2018-03-22T12:08:16.896Z,2.22
2018-03-22T12:10:44.398Z,2.31
2018-03-22T12:13:11.866Z,2.45
2018-03-22T12:15:39.326Z,2.57
2018-03-22T12:18:06.815Z,2.59
2018-03-22T12:20:34.285Z,2.60
2018-03-22T12:23:01.755Z,2.60
2018-03-22T12:25:29.305Z,2.54
2018-03-22T12:27:56.868Z,2.60
2018-03-22T12:30:24.337Z,2.66
2018-03-22T12:32:51.937Z,2.69
2018-03-22T12:35:19.393Z,2.64
2018-03-22T12:37:46.850Z,2.73
2018-03-22T12:40:14.382Z,2.75
2018-03-22T12:42:41.917Z,2.68
2018-03-22T12:45:09.407Z,2.64
2018-03-22T12:47:36.916Z,2.65
2018-03-22T12:50:04.402Z,2.77
2018-03-22T12:52:31.876Z,2.85
2018-03-22T12:54:59.368Z,2.85
2018-03-22T12:57:26.866Z,2.87
2018-03-22T12:59:54.338Z,2.87
2018-03-22T13:02:21.794Z,2.89
2018-03-22T13:04:49.278Z,2.88
2018-03-22T13:07:16.731Z,2.88
2018-03-22T13:09:44.210Z,3.02
2018-03-22T13:12:11.683Z,3.01
2018-03-22T13:14:39.147Z,3.03
2018-03-22T13:17:06.724Z,3.06
2018-03-22T13:19:34.190Z,3.09
2018-03-22T13:22:01.667Z,3.15
2018-03-22T13:24:29.196Z,3.19
2018-03-22T13:26:56.755Z,3.19
2018-03-22T13:29:24.223Z,3.16
2018-03-22T13:31:51.702Z,3.16
2018-03-22T13:34:19.185Z,3.17
2018-03-22T13:36:46.642Z,3.19
2018-03-22T13:39:14.149Z,3.18
2018-03-22T13:41:41.662Z,3.15
2018-03-22T13:44:09.137Z,3.10
2018-03-22T13:46:36.704Z,3.08
2018-03-22T13:49:04.240Z,3.13
2018-03-22T13:51:31.711Z,3.17
2018-03-22T13:53:59.225Z,3.23
2018-03-22T13:56:26.723Z,3.27
2018-03-22T13:58:54.178Z,3.34
2018-03-22T14:01:21.655Z,3.36
2018-03-22T14:03:49.118Z,3.31
2018-03-22T14:06:16.618Z,3.35
2018-03-22T14:08:44.081Z,3.41
2018-03-22T14:11:11.554Z,3.45
2018-03-22T14:13:39.124Z,3.44
2018-03-22T14:16:06.604Z,3.37
2018-03-22T14:18:34.121Z,3.35
2018-03-22T14:21:01.637Z,3.29
2018-03-22T14:23:29.136Z,3.31
2018-03-22T14:25:56.609Z,3.37
2018-03-22T14:28:24.095Z,3.37
2018-03-22T14:30:51.567Z,3.39
2018-03-22T14:33:19.055Z,3.34
2018-03-22T14:35:46.570Z,3.34
2018-03-22T14:38:14.026Z,3.34
2018-03-22T14:40:41.485Z,3.34
2018-03-22T14:43:08.979Z,3.38
2018-03-22T14:45:36.456Z,3.44
2018-03-22T14:48:03.935Z,3.50
2018-03-22T14:50:31.422Z,3.49
2018-03-22T14:52:58.911Z,3.49
2018-03-22T14:55:26.409Z,3.55
2018-03-22T14:57:53.864Z,3.60
2018-03-22T15:00:21.355Z,3.56
2018-03-22T15:02:48.822Z,3.50
2018-03-22T15:05:16.278Z,3.49
2018-03-22T15:07:43.767Z,3.54
2018-03-22T15:10:11.246Z,3.55
2018-03-22T15:12:38.718Z,3.53
2018-03-22T15:15:06.271Z,3.50
2018-03-22T15:17:33.741Z,3.53
2018-03-22T15:20:01.223Z,3.51
2018-03-22T15:22:28.794Z,3.50
2018-03-22T15:24:56.267Z,3.50
2018-03-22T15:27:23.735Z,3.46
2018-03-22T15:29:51.325Z,3.50
2018-03-22T15:32:18.823Z,3.53
2018-03-22T15:34:46.288Z,3.50
2018-03-22T15:37:13.796Z,3.49
2018-03-22T15:39:41.286Z,3.50
2018-03-22T15:42:08.742Z,3.45
2018-03-22T15:44:36.221Z,3.49
2018-03-22T15:47:03.711Z,3.53
2018-03-22T15:49:31.231Z,3.58
2018-03-22T15:51:58.743Z,3.59
2018-03-22T15:54:26.205Z,3.60
2018-03-22T15:56:53.677Z,3.57
2018-03-22T15:59:21.210Z,3.57
2018-03-22T16:01:48.728Z,3.56
2018-03-22T16:04:16.184Z,3.49
2018-03-22T16:06:43.683Z,3.50
2018-03-22T16:09:11.134Z,3.49
2018-03-22T16:11:38.595Z,3.52
2018-03-22T16:14:06.073Z,3.52
2018-03-22T16:16:33.552Z,3.52
2018-03-22T16:19:01.026Z,3.50
2018-03-22T16:21:28.514Z,3.51
2018-03-22T16:23:56.067Z,3.55
2018-03-22T16:26:23.533Z,3.57
2018-03-22T16:28:51.042Z,3.59
2018-03-22T16:31:18.508Z,3.54
2018-03-22T16:33:45.980Z,3.53
2018-03-22T16:36:13.454Z,3.52
2018-03-22T16:38:40.955Z,3.52
2018-03-22T16:41:08.446Z,3.52
2018-03-22T16:43:35.966Z,3.48
2018-03-22T16:46:03.540Z,3.48
2018-03-22T16:48:31.116Z,3.41
2018-03-22T16:50:58.698Z,3.43
2018-03-22T16:53:26.179Z,3.45
2018-03-22T16:55:53.706Z,3.47
2018-03-22T16:58:21.175Z,3.47
2018-03-22T17:00:48.686Z,3.43
2018-03-22T17:03:16.150Z,3.42
2018-03-22T17:05:43.622Z,3.40
2018-03-22T17:08:11.711Z,3.38
2018-03-22T17:10:39.191Z,3.38
2018-03-22T17:13:06.689Z,3.35
2018-03-22T17:15:34.244Z,3.38
2018-03-22T17:18:01.720Z,3.37
2018-03-22T17:20:29.175Z,3.32
2018-03-22T17:22:56.810Z,3.33
2018-03-22T17:25:24.296Z,3.35
2018-03-22T17:27:51.790Z,3.36
2018-03-22T17:30:19.298Z,3.34
2018-03-22T17:32:46.756Z,3.32
2018-03-22T17:35:14.309Z,3.30
2018-03-22T17:37:41.879Z,3.30
2018-03-22T17:40:09.445Z,3.32
2018-03-22T17:42:37.541Z,3.36
2018-03-22T17:45:05.028Z,3.34
2018-03-22T17:47:32.561Z,3.31
2018-03-22T17:50:00.043Z,3.32
2018-03-22T17:52:27.642Z,3.34
2018-03-22T17:54:55.134Z,3.32
2018-03-22T17:57:22.596Z,3.32
2018-03-22T17:59:50.075Z,3.42
2018-03-22T18:02:17.671Z,3.50
2018-03-22T18:04:45.249Z,3.44
2018-03-22T18:07:12.801Z,3.36
2018-03-22T18:09:40.351Z,3.32
2018-03-22T18:12:07.829Z,3.29
2018-03-22T18:14:35.299Z,3.28
2018-03-22T18:17:02.822Z,3.28
2018-03-22T18:19:30.315Z,3.27
2018-03-22T18:21:57.787Z,3.30
2018-03-22T18:24:25.294Z,3.31
2018-03-22T18:26:52.755Z,3.31
2018-03-22T18:29:20.302Z,3.33
2018-03-22T18:31:47.778Z,3.37
2018-03-22T18:34:15.322Z,3.38
2018-03-22T18:36:42.947Z,3.39
2018-03-22T18:39:10.417Z,3.37
2018-03-22T18:41:37.910Z,3.35
2018-03-22T18:44:05.378Z,3.35
2018-03-22T18:46:32.855Z,3.38
2018-03-22T18:49:00.343Z,3.44
2018-03-22T18:51:27.807Z,3.45
2018-03-22T18:53:55.285Z,3.43
2018-03-22T18:56:22.785Z,3.42
2018-03-22T18:58:50.275Z,3.46
2018-03-22T19:01:17.745Z,3.48
2018-03-22T19:03:45.218Z,3.50
2018-03-22T19:06:12.709Z,3.47
2018-03-22T19:08:40.176Z,3.48
2018-03-22T19:11:07.664Z,3.47
2018-03-22T19:13:35.204Z,3.50
2018-03-22T19:16:02.754Z,3.48
2018-03-22T19:18:30.248Z,3.50
2018-03-22T19:20:57.820Z,3.56
2018-03-22T19:23:25.338Z,3.55
2018-03-22T19:25:52.896Z,3.58
2018-03-22T19:28:20.351Z,3.56
2018-03-22T19:30:47.853Z,3.57
2018-03-22T19:33:15.315Z,3.57
2018-03-22T19:35:42.847Z,3.57
2018-03-22T19:38:10.333Z,3.61
2018-03-22T19:40:37.899Z,3.66
2018-03-22T19:43:05.370Z,3.67
2018-03-22T19:45:32.886Z,3.66
2018-03-22T19:48:00.354Z,3.65
2018-03-22T19:50:27.846Z,3.66
2018-03-22T19:52:55.306Z,3.67
2018-03-22T19:55:22.842Z,3.71
2018-03-22T19:57:50.641Z,3.67
2018-03-22T20:00:18.158Z,3.67
2018-03-22T20:02:45.616Z,3.71
2018-03-22T20:05:13.091Z,3.72
2018-03-22T20:07:40.605Z,3.73
2018-03-22T20:10:08.175Z,3.75
2018-03-22T20:12:35.879Z,3.78
2018-03-22T20:15:03.362Z,3.76
2018-03-22T20:17:30.831Z,3.80
2018-03-22T20:19:58.399Z,3.79
2018-03-22T20:22:25.963Z,3.79
2018-03-22T20:24:53.454Z,3.79
2018-03-22T20:27:20.969Z,3.80
2018-03-22T20:29:48.426Z,3.82
2018-03-22T20:32:15.998Z,3.83
2018-03-22T20:34:43.475Z,3.83
2018-03-22T20:37:10.952Z,3.82
2018-03-22T20:39:38.468Z,3.82
2018-03-22T20:42:05.939Z,3.85
2018-03-22T20:44:33.423Z,3.89
2018-03-22T20:47:00.887Z,3.89
2018-03-22T20:49:28.349Z,3.89
2018-03-22T20:51:55.867Z,3.94
2018-03-22T20:54:23.419Z,3.99
2018-03-22T20:56:51.359Z,3.99
2018-03-22T20:59:18.826Z,3.98
2018-03-22T21:01:46.308Z,3.98
2018-03-22T21:04:13.851Z,4.00
2018-03-22T21:06:41.339Z,4.00
2018-03-22T21:09:08.927Z,4.05
2018-03-22T21:11:36.390Z,4.06
2018-03-22T21:14:03.859Z,4.07
2018-03-22T21:16:31.353Z,4.11
2018-03-22T21:18:58.814Z,4.13
2018-03-22T21:21:26.266Z,4.15
2018-03-22T21:23:53.786Z,4.15
2018-03-22T21:26:21.260Z,4.17
2018-03-22T21:28:48.714Z,4.17
2018-03-22T21:31:16.190Z,4.20
2018-03-22T21:33:43.781Z,4.23
2018-03-22T21:36:11.256Z,4.21
2018-03-22T21:38:38.783Z,4.16
2018-03-22T21:41:06.237Z,4.17
2018-03-22T21:43:33.695Z,4.22
2018-03-22T21:46:01.275Z,4.27
2018-03-22T21:48:28.747Z,4.31
2018-03-22T21:51:01.224Z,4.33
2018-03-22T21:53:28.718Z,4.33
2018-03-22T21:55:56.231Z,4.31
2018-03-22T21:58:23.754Z,4.34
2018-03-22T22:00:51.214Z,4.35
2018-03-22T22:03:18.678Z,4.38
2018-03-22T22:05:46.160Z,4.36
2018-03-22T22:08:13.632Z,4.35
2018-03-22T22:10:41.237Z,4.35
2018-03-22T22:13:08.711Z,4.38
2018-03-22T22:15:36.202Z,4.42
2018-03-22T22:18:03.671Z,4.46
2018-03-22T22:20:31.145Z,4.46
2018-03-22T22:22:58.646Z,4.49
2018-03-22T22:25:26.106Z,4.50
2018-03-22T22:27:53.567Z,4.49
2018-03-22T22:30:21.066Z,4.50
2018-03-22T22:32:49.454Z,4.54
2018-03-22T22:35:16.902Z,4.53
2018-03-22T22:37:44.378Z,4.51
2018-03-22T22:40:11.932Z,4.52
2018-03-22T22:42:39.433Z,4.49
2018-03-22T22:45:06.887Z,4.49
2018-03-22T22:47:34.403Z,4.50
2018-03-22T22:50:01.915Z,4.49
2018-03-22T22:52:29.368Z,4.50
2018-03-22T22:54:56.927Z,4.50
2018-03-22T22:57:24.402Z,4.50
2018-03-22T22:59:51.882Z,4.49
2018-03-22T23:02:19.331Z,4.50
2018-03-22T23:04:46.787Z,4.49
2018-03-22T23:07:14.266Z,4.48
2018-03-22T23:09:41.721Z,4.47
2018-03-22T23:12:09.286Z,4.49
2018-03-22T23:14:36.774Z,4.48
2018-03-22T23:17:04.308Z,4.51
2018-03-22T23:19:31.857Z,4.51
2018-03-22T23:21:59.433Z,4.56
2018-03-22T23:24:26.890Z,4.55
2018-03-22T23:26:54.364Z,4.52
2018-03-22T23:29:21.846Z,4.51
2018-03-22T23:31:49.318Z,4.52
2018-03-22T23:34:16.775Z,4.51
2018-03-22T23:36:44.260Z,4.52
2018-03-22T23:39:11.723Z,4.54
2018-03-22T23:41:39.230Z,4.53
2018-03-22T23:44:06.770Z,4.54
2018-03-22T23:46:34.247Z,4.50
2018-03-22T23:49:01.752Z,4.47
2018-03-22T23:51:29.224Z,4.48
2018-03-22T23:53:56.686Z,4.49
2018-03-22T23:56:24.162Z,4.50
2018-03-22T23:58:51.617Z,4.51
